Oceanside, New York
Current Conditions -  °F | °C
As of 12:46 AM on Thursday 27 Nov 2014 (Local Time) from KJFK Reporting Station
Light Rain Light Rain  
Wind Chill: 25°   Ceiling: 3800
Heat Index: 36°   Visibility: 10mi
Dew Point: 32°   Wind: 21mph
Humidity: 87%   Direction: 330°NNW
Pressure: 29.85"   Gusts: 28mph
Location:  40.64°N, 73.64°W
Report Text: KJFK 270546Z 33018G24KT 10SM -RA SCT016 OVC038 02/00 A2985 RMK AO2 SNE44 P0001 $
Loading
Personal Weather Stations






























Interactive Weather Map New forecast layout! Learn more

10-Day Weather Forecast

Advertisements
Track Severe Weather on mobile